Terminal Aerodrome Forecast
Issued by NWS Dodge City, KS

Home | Current Version | Previous Version | Graphics & Text | Print | Product List | Glossary Off
Versions: 1 2 3 4 5 6 7 8 9 10 11 12 13 14 15 16 17 18 19 20 21 22 23 24 25 26 27 28 29 30 31 32 33 34 35 36 37

000
FTUS43 KDDC 232333
TAFDDC
TAF
KDDC 232333Z 2400/2424 15013KT P6SM SCT030 BKN040
     FM240200 15012KT P6SM BKN015
     FM240330 14011KT P6SM OVC007
     FM240800 13008KT 3/4SM -DZ BR OVC003
     FM241400 17012KT P6SM BKN015
     FM241700 19015KT P6SM SCT035=

USA.gov is the U.S. government's official web portal to all federal, state and local government web resources and services.